createdAt,value
2019-05-15T05:17:00.698Z,39.10
2019-05-15T05:19:58.247Z,39.10
2019-05-15T05:22:51.391Z,39.10
2019-05-15T05:25:44.482Z,39.00
2019-05-15T05:28:48.936Z,39.00
2019-05-15T05:31:45.566Z,39.00
2019-05-15T05:34:40.821Z,38.90
2019-05-15T05:37:38.629Z,38.90
2019-05-15T05:40:33.519Z,38.80
2019-05-15T05:43:27.154Z,38.70
2019-05-15T05:46:20.573Z,38.60
2019-05-15T05:49:14.392Z,38.50
2019-05-15T05:52:09.058Z,38.40
2019-05-15T05:55:02.512Z,38.20
2019-05-15T05:57:59.518Z,38.10
2019-05-15T06:00:55.192Z,38.00
2019-05-15T06:03:49.476Z,37.90
2019-05-15T06:06:48.617Z,37.80
2019-05-15T06:09:41.040Z,37.70
2019-05-15T06:12:38.571Z,37.70
2019-05-15T06:15:33.341Z,37.40
2019-05-15T06:18:30.274Z,37.30
2019-05-15T06:21:28.540Z,37.20
2019-05-15T06:24:30.327Z,37.00
2019-05-15T06:27:27.949Z,36.90
2019-05-15T06:30:27.424Z,36.90
2019-05-15T06:33:23.955Z,36.70
2019-05-15T06:36:19.979Z,36.70
2019-05-15T06:39:13.729Z,36.40
2019-05-15T06:42:08.818Z,36.50
2019-05-15T06:45:03.604Z,36.30
2019-05-15T06:48:05.264Z,36.10
2019-05-15T06:50:59.845Z,36.00
2019-05-15T06:53:58.224Z,35.90
2019-05-15T06:56:51.514Z,36.00
2019-05-15T06:59:49.510Z,36.00
2019-05-15T07:02:48.657Z,35.90
2019-05-15T07:05:45.283Z,35.70
2019-05-15T07:08:43.141Z,35.80
2019-05-15T07:11:39.211Z,35.70
2019-05-15T07:14:35.014Z,35.60
2019-05-15T07:17:28.735Z,35.60
2019-05-15T07:20:21.447Z,35.50
2019-05-15T07:23:14.438Z,35.60
2019-05-15T07:26:11.016Z,35.60
2019-05-15T07:29:03.968Z,35.70
2019-05-15T07:31:58.611Z,35.50
2019-05-15T07:34:53.346Z,36.10
2019-05-15T07:37:47.870Z,35.40
2019-05-15T07:40:40.713Z,35.00
2019-05-15T07:43:34.158Z,34.90
2019-05-15T07:46:28.819Z,34.80
2019-05-15T07:49:22.331Z,34.60
2019-05-15T07:52:15.969Z,34.50
2019-05-15T07:55:11.248Z,34.50
2019-05-15T08:01:13.239Z,34.40
2019-05-15T08:04:22.733Z,34.30
2019-05-15T08:07:01.911Z,34.20
2019-05-15T08:09:58.847Z,34.20
2019-05-15T08:12:49.974Z,34.10
2019-05-15T08:15:42.788Z,34.20
2019-05-15T08:18:39.140Z,34.00
2019-05-15T08:21:34.430Z,34.00
2019-05-15T08:24:29.846Z,30.10
2019-05-15T08:27:23.884Z,32.90
2019-05-15T08:30:18.496Z,32.00
2019-05-15T08:33:12.887Z,30.80
2019-05-15T08:36:08.382Z,30.20
2019-05-15T08:39:01.179Z,29.90
2019-05-15T08:41:55.699Z,30.50
2019-05-15T08:44:49.631Z,31.50
2019-05-15T08:47:45.894Z,32.20
2019-05-15T08:50:44.403Z,33.00
2019-05-15T08:53:38.428Z,33.80
2019-05-15T08:56:31.934Z,34.50
2019-05-15T08:59:24.822Z,35.10
2019-05-15T09:02:18.526Z,35.70
2019-05-15T09:05:12.629Z,36.00
2019-05-15T09:08:09.048Z,36.40
2019-05-15T09:11:19.261Z,36.90
2019-05-15T09:14:12.901Z,37.40
2019-05-15T09:17:09.346Z,37.70
2019-05-15T09:20:04.135Z,38.10
2019-05-15T09:22:58.397Z,38.30
2019-05-15T09:25:53.002Z,38.70
2019-05-15T09:28:49.444Z,38.90
2019-05-15T09:31:44.168Z,38.90
2019-05-15T09:34:50.938Z,39.00
2019-05-15T09:37:34.593Z,39.20
2019-05-15T09:40:42.575Z,39.40
2019-05-15T09:43:28.576Z,39.80
2019-05-15T09:46:23.562Z,40.10
2019-05-15T09:49:18.380Z,40.20
2019-05-15T09:52:14.932Z,40.30
2019-05-15T09:55:12.879Z,40.30
2019-05-15T09:58:08.837Z,40.50
2019-05-15T10:01:04.028Z,40.60
2019-05-15T10:04:02.116Z,40.70
2019-05-15T10:07:00.372Z,40.90
2019-05-15T10:09:56.363Z,41.20
2019-05-15T10:12:50.699Z,41.60
2019-05-15T10:15:49.974Z,42.10
2019-05-15T10:18:43.285Z,42.10
2019-05-15T10:21:40.024Z,42.20
2019-05-15T10:24:41.719Z,42.10
2019-05-15T10:27:36.236Z,42.30
2019-05-15T10:30:31.098Z,42.10
2019-05-15T10:33:29.431Z,42.20
2019-05-15T10:36:27.832Z,42.10
2019-05-15T10:39:28.671Z,42.00
2019-05-15T10:42:23.270Z,42.30
2019-05-15T10:45:20.469Z,41.00
2019-05-15T10:48:18.955Z,40.00
2019-05-15T10:51:19.361Z,39.30
2019-05-15T10:54:13.100Z,38.80
2019-05-15T10:57:08.589Z,38.30
2019-05-15T11:00:03.780Z,37.80
2019-05-15T11:03:00.753Z,37.50
2019-05-15T11:05:58.311Z,37.20
2019-05-15T11:08:54.750Z,36.70
2019-05-15T11:11:58.290Z,36.30
2019-05-15T11:14:56.656Z,36.10
2019-05-15T11:17:54.784Z,35.60
2019-05-15T11:20:58.584Z,35.20
2019-05-15T11:23:54.937Z,34.70
2019-05-15T11:26:55.659Z,34.40
2019-05-15T11:29:49.311Z,34.20
2019-05-15T11:32:44.046Z,33.90
2019-05-15T11:35:40.655Z,33.80
2019-05-15T11:38:34.025Z,33.80
2019-05-15T11:41:29.489Z,34.00
2019-05-15T11:44:22.931Z,34.00
2019-05-15T11:47:18.416Z,34.00
2019-05-15T11:50:11.746Z,33.90
2019-05-15T11:53:05.201Z,33.80
2019-05-15T11:55:59.851Z,33.80
2019-05-15T11:58:53.238Z,33.60
2019-05-15T12:01:48.728Z,33.50
2019-05-15T12:04:40.557Z,33.50
2019-05-15T12:07:34.427Z,33.40
2019-05-15T12:10:28.931Z,33.20
2019-05-15T12:13:21.891Z,33.10
2019-05-15T12:16:14.886Z,32.90
2019-05-15T12:19:16.656Z,32.70
2019-05-15T12:22:01.558Z,32.60
2019-05-15T12:24:53.923Z,32.50
2019-05-15T12:27:48.998Z,32.30
2019-05-15T12:30:41.075Z,32.20
2019-05-15T12:33:33.512Z,32.10
2019-05-15T12:36:47.448Z,31.70
2019-05-15T12:39:22.243Z,31.50
2019-05-15T12:59:44.782Z,30.90
2019-05-15T13:02:38.852Z,30.70
2019-05-15T13:05:32.765Z,30.80
2019-05-15T13:08:29.061Z,30.80
2019-05-15T13:11:21.954Z,30.80
2019-05-15T13:14:15.893Z,31.00
2019-05-15T13:17:09.678Z,31.20
2019-05-15T13:20:02.785Z,30.80
2019-05-15T13:22:56.035Z,31.20
2019-05-15T13:25:51.477Z,31.40
2019-05-15T13:28:45.641Z,31.50
2019-05-15T13:31:38.728Z,31.50
2019-05-15T13:34:31.510Z,31.70
2019-05-15T13:37:27.099Z,31.80
2019-05-15T13:40:18.816Z,31.90
2019-05-15T13:43:11.634Z,31.80
2019-05-15T13:46:05.536Z,32.40
2019-05-15T13:48:59.556Z,32.10
2019-05-15T13:51:54.002Z,32.20
2019-05-15T13:54:48.354Z,32.30
2019-05-15T13:57:41.690Z,32.50
2019-05-15T14:00:34.870Z,32.50
2019-05-15T14:03:28.943Z,32.60
2019-05-15T14:06:21.837Z,32.70
2019-05-15T14:09:14.719Z,32.80
2019-05-15T14:12:12.105Z,32.90
2019-05-15T14:15:04.497Z,33.00
2019-05-15T14:17:57.818Z,33.10
2019-05-15T14:20:51.587Z,33.10
2019-05-15T14:23:47.714Z,33.20
2019-05-15T14:26:41.026Z,33.20
2019-05-15T14:29:33.919Z,33.40
2019-05-15T14:32:37.479Z,33.30
2019-05-15T14:35:23.103Z,33.40
2019-05-15T14:38:18.562Z,33.50
2019-05-15T14:41:10.971Z,33.50
2019-05-15T14:44:14.628Z,33.60
2019-05-15T14:47:00.130Z,33.60
2019-05-15T14:49:58.371Z,33.60
2019-05-15T14:52:54.013Z,33.70
2019-05-15T14:55:49.223Z,33.60
2019-05-15T14:58:43.502Z,33.70
2019-05-15T15:01:38.410Z,33.80
2019-05-15T15:04:32.488Z,33.90
2019-05-15T15:07:28.438Z,33.90
2019-05-15T15:10:23.790Z,34.00
2019-05-15T15:13:18.301Z,34.10
2019-05-15T15:16:12.137Z,34.20
2019-05-15T15:19:06.788Z,34.20
2019-05-15T15:22:02.731Z,34.40
2019-05-15T15:24:59.678Z,34.40
2019-05-15T15:27:53.233Z,34.50
2019-05-15T15:30:48.454Z,34.60
2019-05-15T15:33:41.840Z,34.60
2019-05-15T15:36:37.842Z,34.70
2019-05-15T15:39:31.698Z,34.90
2019-05-15T15:42:25.447Z,34.80
2019-05-15T15:45:19.761Z,35.00
2019-05-15T15:48:13.388Z,35.00
2019-05-15T15:51:08.925Z,35.00
2019-05-15T15:54:01.254Z,35.10
2019-05-15T15:56:55.446Z,35.20
2019-05-15T15:59:49.779Z,35.20
2019-05-15T16:02:42.847Z,35.30
2019-05-15T16:05:35.330Z,35.30
2019-05-15T16:08:30.606Z,35.40
2019-05-15T16:11:27.814Z,35.50
2019-05-15T16:14:22.405Z,35.50
2019-05-15T16:17:17.944Z,35.50
2019-05-15T16:20:09.996Z,35.60
2019-05-15T16:23:03.109Z,35.70
2019-05-15T16:25:58.254Z,35.70
2019-05-15T16:28:52.789Z,35.80
2019-05-15T16:31:49.057Z,35.80
2019-05-15T16:34:40.695Z,36.00
2019-05-15T16:37:33.780Z,36.00
2019-05-15T16:40:28.635Z,36.00
2019-05-15T16:43:20.818Z,36.00
2019-05-15T16:46:13.871Z,36.00
2019-05-15T16:49:06.591Z,36.10
2019-05-15T16:51:59.414Z,36.20
2019-05-15T16:54:51.874Z,36.30
2019-05-15T16:57:47.790Z,36.30
2019-05-15T17:00:40.158Z,36.30
2019-05-15T17:03:33.106Z,36.40
2019-05-15T17:06:27.945Z,36.30
2019-05-15T17:09:21.695Z,36.40
2019-05-15T17:12:13.838Z,36.50
2019-05-15T17:15:09.158Z,36.50
2019-05-15T17:18:03.006Z,36.50
2019-05-15T17:20:58.857Z,36.60
2019-05-15T17:23:51.162Z,36.60
2019-05-15T17:26:44.678Z,36.60
2019-05-15T17:29:38.466Z,36.70
2019-05-15T17:32:34.928Z,36.70
2019-05-15T17:35:28.139Z,36.80
2019-05-15T17:38:20.062Z,36.80
2019-05-15T17:41:13.043Z,37.00
2019-05-15T17:44:05.758Z,36.90
2019-05-15T17:46:59.902Z,37.00
2019-05-15T17:49:52.822Z,37.10
2019-05-15T17:52:45.627Z,37.00
2019-05-15T17:55:38.492Z,37.00
2019-05-15T17:58:31.400Z,37.10
2019-05-15T18:01:23.991Z,37.10
2019-05-15T18:04:18.744Z,37.10
2019-05-15T18:07:12.222Z,37.20
2019-05-15T18:10:05.341Z,37.20
2019-05-15T18:12:58.539Z,37.30
2019-05-15T18:15:51.300Z,37.30
2019-05-15T18:18:47.917Z,37.30
2019-05-15T18:21:42.449Z,37.30
2019-05-15T18:24:35.252Z,37.30
2019-05-15T18:27:28.739Z,37.40
2019-05-15T18:30:21.432Z,37.40
2019-05-15T18:33:18.535Z,37.40
2019-05-15T18:36:11.671Z,37.50
2019-05-15T18:39:08.643Z,37.50
2019-05-15T18:42:02.118Z,37.50
2019-05-15T18:44:58.008Z,37.50
2019-05-15T18:47:51.789Z,37.50
2019-05-15T18:50:48.200Z,37.50
2019-05-15T18:53:42.116Z,37.60
2019-05-15T18:56:38.602Z,37.60
2019-05-15T18:59:33.121Z,37.60
2019-05-15T19:02:28.093Z,37.60
2019-05-15T19:05:22.083Z,37.60
2019-05-15T19:08:18.644Z,37.70
2019-05-15T19:11:12.390Z,37.70
2019-05-15T19:14:07.964Z,37.80
2019-05-15T19:17:02.563Z,37.70
2019-05-15T19:19:58.743Z,37.70
2019-05-15T19:22:54.603Z,37.70
2019-05-15T19:25:49.805Z,37.70
2019-05-15T19:28:44.873Z,37.80
2019-05-15T19:31:39.978Z,37.90
2019-05-15T19:34:38.737Z,37.80
2019-05-15T19:37:34.007Z,37.90
2019-05-15T19:40:29.516Z,37.90
2019-05-15T19:43:24.479Z,37.90
2019-05-15T19:46:18.812Z,38.00
2019-05-15T19:49:12.990Z,38.00
2019-05-15T19:52:08.400Z,38.00
2019-05-15T19:55:02.172Z,38.10
2019-05-15T19:57:58.538Z,38.00
2019-05-15T20:00:51.623Z,38.00
2019-05-15T20:03:49.969Z,38.10
2019-05-15T20:06:39.769Z,38.10
2019-05-15T20:09:33.059Z,38.10
2019-05-15T20:12:27.942Z,38.10
2019-05-15T20:15:23.636Z,38.10
2019-05-15T20:18:18.469Z,38.20
2019-05-15T20:21:12.816Z,38.20
2019-05-15T20:24:08.459Z,38.20
2019-05-15T20:27:01.289Z,38.20
2019-05-15T20:29:53.473Z,38.30
2019-05-15T20:32:47.752Z,38.30
2019-05-15T20:35:40.217Z,38.30
2019-05-15T20:38:32.587Z,38.30
2019-05-15T20:41:26.118Z,38.30
2019-05-15T20:44:18.673Z,38.30
2019-05-15T20:47:10.922Z,38.30
2019-05-15T20:50:03.160Z,38.30
2019-05-15T20:52:58.567Z,38.40
2019-05-15T20:55:49.411Z,38.40
2019-05-15T20:58:42.034Z,38.40
2019-05-15T21:01:34.555Z,38.70
2019-05-15T21:04:28.103Z,38.40
2019-05-15T21:07:34.435Z,38.50
2019-05-15T21:10:14.901Z,38.50
2019-05-15T21:13:07.111Z,38.50
2019-05-15T21:15:59.756Z,38.50
2019-05-15T21:18:52.578Z,38.50
2019-05-15T21:21:47.837Z,38.50
2019-05-15T21:24:40.672Z,38.60
2019-05-15T21:27:33.880Z,38.70
2019-05-15T21:30:29.533Z,38.60
2019-05-15T21:33:21.775Z,38.60
2019-05-15T21:36:15.382Z,38.60
2019-05-15T21:39:08.149Z,38.60
2019-05-15T21:42:00.824Z,38.60
2019-05-15T21:44:52.995Z,38.70
2019-05-15T21:47:45.332Z,38.70
2019-05-15T21:50:38.812Z,38.70
2019-05-15T21:53:31.158Z,38.70
2019-05-15T21:56:23.659Z,38.70
2019-05-15T21:59:15.768Z,38.70
2019-05-15T22:02:08.994Z,38.70
2019-05-15T22:05:01.149Z,38.80
2019-05-15T22:07:53.290Z,38.80
2019-05-15T22:10:48.041Z,38.90
2019-05-15T22:13:40.299Z,39.20
2019-05-15T22:16:33.878Z,38.90
2019-05-15T22:19:30.026Z,38.80
2019-05-15T22:22:19.878Z,38.90
2019-05-15T22:25:14.086Z,38.90
2019-05-15T22:28:07.882Z,38.90
2019-05-15T22:31:01.290Z,38.90
2019-05-15T22:33:54.320Z,38.90
2019-05-15T22:36:50.606Z,38.90
2019-05-15T22:39:40.248Z,38.90
2019-05-15T22:42:32.550Z,38.90
2019-05-15T22:45:25.261Z,39.60
2019-05-15T22:48:19.132Z,38.90
2019-05-15T22:51:14.804Z,38.90
2019-05-15T22:54:08.664Z,39.00
2019-05-15T22:57:03.937Z,39.00
2019-05-15T22:59:58.119Z,39.00
2019-05-15T23:02:51.158Z,39.50
2019-05-15T23:05:43.778Z,39.10
2019-05-15T23:08:38.449Z,39.00
2019-05-15T23:11:33.461Z,39.00
2019-05-15T23:14:28.585Z,39.00
2019-05-15T23:17:22.152Z,39.00
2019-05-15T23:20:17.759Z,39.70
2019-05-15T23:23:12.422Z,39.20
2019-05-15T23:26:07.239Z,39.10
2019-05-15T23:29:00.376Z,39.10
2019-05-15T23:31:53.796Z,39.20
2019-05-15T23:34:49.129Z,39.20
2019-05-15T23:37:44.056Z,39.10
2019-05-15T23:40:38.385Z,39.20
2019-05-15T23:43:32.214Z,39.30
2019-05-15T23:46:28.678Z,39.20
2019-05-15T23:49:21.258Z,39.20
2019-05-15T23:52:14.984Z,39.20
2019-05-15T23:55:08.535Z,39.30
2019-05-15T23:58:00.734Z,39.30
